sensor_id;sensor_type;location;lat;lon;timestamp;pressure;altitude;pressure_sealevel;temperature;humidity
79780;BME280;69258;52.050;10.334;2023-07-08T00:02:29;100122.72;;;23.34;51.92
79780;BME280;69258;52.050;10.334;2023-07-08T00:17:31;100118.56;;;23.31;52.07
79780;BME280;69258;52.050;10.334;2023-07-08T00:32:34;100111.75;;;23.29;52.23
79780;BME280;69258;52.050;10.334;2023-07-08T00:47:36;100107.22;;;23.29;52.15
79780;BME280;69258;52.050;10.334;2023-07-08T01:02:49;100097.69;;;23.27;52.31
79780;BME280;69258;52.050;10.334;2023-07-08T01:17:52;100086.13;;;23.26;51.73
79780;BME280;69258;52.050;10.334;2023-07-08T01:33:02;100073.06;;;23.23;52.02
79780;BME280;69258;52.050;10.334;2023-07-08T01:48:10;100076.00;;;23.22;51.58
79780;BME280;69258;52.050;10.334;2023-07-08T02:03:13;100057.38;;;23.20;51.93
79780;BME280;69258;52.050;10.334;2023-07-08T02:18:16;100039.81;;;23.18;51.72
79780;BME280;69258;52.050;10.334;2023-07-08T02:33:18;100051.59;;;23.17;52.17
79780;BME280;69258;52.050;10.334;2023-07-08T02:48:21;100049.09;;;23.15;51.49
79780;BME280;69258;52.050;10.334;2023-07-08T03:03:22;100042.09;;;23.14;51.24
79780;BME280;69258;52.050;10.334;2023-07-08T03:18:26;100041.28;;;23.14;51.84
79780;BME280;69258;52.050;10.334;2023-07-08T03:33:28;100045.22;;;23.11;51.23
79780;BME280;69258;52.050;10.334;2023-07-08T03:48:30;100037.56;;;23.15;51.52
79780;BME280;69258;52.050;10.334;2023-07-08T04:03:32;100039.41;;;23.14;51.25
79780;BME280;69258;52.050;10.334;2023-07-08T04:18:35;100030.91;;;23.17;51.33
79780;BME280;69258;52.050;10.334;2023-07-08T04:33:37;100037.72;;;23.20;51.30
79780;BME280;69258;52.050;10.334;2023-07-08T04:48:39;100044.16;;;23.19;51.34
79780;BME280;69258;52.050;10.334;2023-07-08T05:03:41;100055.72;;;23.19;51.17
79780;BME280;69258;52.050;10.334;2023-07-08T05:18:44;100067.50;;;21.80;48.59
79780;BME280;69258;52.050;10.334;2023-07-08T05:33:46;100064.72;;;21.47;48.99
79780;BME280;69258;52.050;10.334;2023-07-08T05:48:49;100061.19;;;22.14;48.42
79780;BME280;69258;52.050;10.334;2023-07-08T06:03:51;100062.03;;;22.28;48.05
79780;BME280;69258;52.050;10.334;2023-07-08T06:18:56;100053.16;;;22.53;48.57
79780;BME280;69258;52.050;10.334;2023-07-08T06:34:00;100052.53;;;22.65;48.48
79780;BME280;69258;52.050;10.334;2023-07-08T06:49:03;100056.25;;;22.70;49.06
79780;BME280;69258;52.050;10.334;2023-07-08T07:04:05;100064.09;;;22.78;49.03
79780;BME280;69258;52.050;10.334;2023-07-08T07:19:08;100050.66;;;22.85;49.82
79780;BME280;69258;52.050;10.334;2023-07-08T07:34:11;100056.84;;;22.92;49.81
79780;BME280;69258;52.050;10.334;2023-07-08T07:49:14;100056.44;;;22.95;50.24
79780;BME280;69258;52.050;10.334;2023-07-08T08:04:17;100058.28;;;22.94;49.53
79780;BME280;69258;52.050;10.334;2023-07-08T08:19:19;100062.41;;;22.97;50.42
79780;BME280;69258;52.050;10.334;2023-07-08T08:34:22;100064.66;;;23.00;50.52
79780;BME280;69258;52.050;10.334;2023-07-08T08:49:32;100072.50;;;23.08;49.96
79780;BME280;69258;52.050;10.334;2023-07-08T09:04:38;100064.84;;;23.12;50.69
79780;BME280;69258;52.050;10.334;2023-07-08T09:19:45;100066.91;;;23.16;50.88
79780;BME280;69258;52.050;10.334;2023-07-08T09:35:02;100056.16;;;23.16;50.43
79780;BME280;69258;52.050;10.334;2023-07-08T09:50:25;100039.59;;;23.19;50.90
79780;BME280;69258;52.050;10.334;2023-07-08T10:05:34;100045.34;;;23.23;51.01
79780;BME280;69258;52.050;10.334;2023-07-08T10:20:48;100048.69;;;23.25;51.12
79780;BME280;69258;52.050;10.334;2023-07-08T10:36:17;100050.94;;;23.28;51.22
79780;BME280;69258;52.050;10.334;2023-07-08T11:06:55;100051.72;;;23.35;50.93
79780;BME280;69258;52.050;10.334;2023-07-08T11:22:00;100025.47;;;23.37;51.31
79780;BME280;69258;52.050;10.334;2023-07-08T11:37:06;100025.03;;;23.40;51.69
79780;BME280;69258;52.050;10.334;2023-07-08T11:52:16;100017.97;;;23.45;51.48
79780;BME280;69258;52.050;10.334;2023-07-08T12:07:29;100015.94;;;23.47;52.08
79780;BME280;69258;52.050;10.334;2023-07-08T12:22:32;100009.28;;;23.50;52.41
79780;BME280;69258;52.050;10.334;2023-07-08T12:37:35;99997.03;;;23.54;51.86
79780;BME280;69258;52.050;10.334;2023-07-08T12:52:39;99987.75;;;23.57;51.99
79780;BME280;69258;52.050;10.334;2023-07-08T13:07:42;99983.56;;;23.61;52.00
79780;BME280;69258;52.050;10.334;2023-07-08T13:22:48;99985.84;;;23.64;51.89
79780;BME280;69258;52.050;10.334;2023-07-08T13:37:56;99964.91;;;23.66;52.02
79780;BME280;69258;52.050;10.334;2023-07-08T13:52:58;99966.13;;;23.70;51.96
79780;BME280;69258;52.050;10.334;2023-07-08T14:08:01;99961.94;;;23.74;51.97
79780;BME280;69258;52.050;10.334;2023-07-08T14:23:03;99957.16;;;23.76;52.06
79780;BME280;69258;52.050;10.334;2023-07-08T14:38:13;99952.16;;;23.79;52.29
79780;BME280;69258;52.050;10.334;2023-07-08T14:53:17;99961.69;;;23.82;52.18
79780;BME280;69258;52.050;10.334;2023-07-08T15:08:20;99955.88;;;23.85;52.13
79780;BME280;69258;52.050;10.334;2023-07-08T15:23:22;99959.78;;;23.89;51.96
79780;BME280;69258;52.050;10.334;2023-07-08T15:38:25;99952.28;;;23.91;52.01
79780;BME280;69258;52.050;10.334;2023-07-08T15:53:27;99941.09;;;23.94;52.43
79780;BME280;69258;52.050;10.334;2023-07-08T16:08:30;99934.44;;;23.96;52.31
79780;BME280;69258;52.050;10.334;2023-07-08T16:23:31;99939.19;;;24.01;52.20
79780;BME280;69258;52.050;10.334;2023-07-08T16:38:33;99943.06;;;24.05;52.38
79780;BME280;69258;52.050;10.334;2023-07-08T16:53:35;99942.63;;;24.08;51.77
79780;BME280;69258;52.050;10.334;2023-07-08T17:08:38;99957.31;;;24.12;51.64
79780;BME280;69258;52.050;10.334;2023-07-08T17:23:40;99936.38;;;24.14;52.09
79780;BME280;69258;52.050;10.334;2023-07-08T17:38:48;99942.97;;;24.18;52.19
79780;BME280;69258;52.050;10.334;2023-07-08T17:53:51;99940.06;;;24.20;51.59
79780;BME280;69258;52.050;10.334;2023-07-08T18:08:54;99946.03;;;24.22;51.87
79780;BME280;69258;52.050;10.334;2023-07-08T18:23:57;99932.97;;;24.25;51.63
79780;BME280;69258;52.050;10.334;2023-07-08T18:38:59;99941.03;;;24.25;51.68
79780;BME280;69258;52.050;10.334;2023-07-08T18:54:01;99949.94;;;24.26;53.75
79780;BME280;69258;52.050;10.334;2023-07-08T19:09:03;99966.94;;;24.26;52.65
79780;BME280;69258;52.050;10.334;2023-07-08T19:24:07;99966.72;;;24.28;52.90
79780;BME280;69258;52.050;10.334;2023-07-08T19:39:28;99973.53;;;24.30;52.31
79780;BME280;69258;52.050;10.334;2023-07-08T19:54:31;99989.91;;;24.29;53.39
79780;BME280;69258;52.050;10.334;2023-07-08T20:09:34;100002.56;;;24.28;52.91
79780;BME280;69258;52.050;10.334;2023-07-08T20:24:37;100012.28;;;24.29;53.19
79780;BME280;69258;52.050;10.334;2023-07-08T20:39:38;100030.28;;;24.29;53.08
79780;BME280;69258;52.050;10.334;2023-07-08T20:54:40;100040.28;;;24.28;52.67
79780;BME280;69258;52.050;10.334;2023-07-08T21:09:43;100048.34;;;24.28;52.82
79780;BME280;69258;52.050;10.334;2023-07-08T21:24:45;100049.59;;;24.26;53.19
79780;BME280;69258;52.050;10.334;2023-07-08T21:39:46;100048.75;;;24.25;52.72
79780;BME280;69258;52.050;10.334;2023-07-08T21:54:49;100056.25;;;24.23;53.43
79780;BME280;69258;52.050;10.334;2023-07-08T22:09:51;100061.63;;;24.23;53.23
79780;BME280;69258;52.050;10.334;2023-07-08T22:24:53;100062.91;;;24.21;52.82
79780;BME280;69258;52.050;10.334;2023-07-08T22:39:55;100059.38;;;24.20;53.41
79780;BME280;69258;52.050;10.334;2023-07-08T22:54:58;100065.59;;;24.21;53.33
79780;BME280;69258;52.050;10.334;2023-07-08T23:10:01;100055.63;;;24.21;52.96
79780;BME280;69258;52.050;10.334;2023-07-08T23:25:03;100060.22;;;24.21;53.13
79780;BME280;69258;52.050;10.334;2023-07-08T23:40:15;100060.44;;;24.19;52.76
79780;BME280;69258;52.050;10.334;2023-07-08T23:55:18;100064.97;;;24.19;52.42
